sensor_id;sensor_type;location;lat;lon;timestamp;pressure;altitude;pressure_sealevel;temperature;humidity
24154;BME280;12312;53.362;-1.518;2023-11-22T00:02:00;100567.41;;;6.70;100.00
24154;BME280;12312;53.362;-1.518;2023-11-22T00:04:44;100564.78;;;6.70;100.00
24154;BME280;12312;53.362;-1.518;2023-11-22T00:07:28;100567.31;;;6.73;100.00
24154;BME280;12312;53.362;-1.518;2023-11-22T00:10:13;100556.63;;;6.51;100.00
24154;BME280;12312;53.362;-1.518;2023-11-22T00:12:57;100562.78;;;6.50;100.00
24154;BME280;12312;53.362;-1.518;2023-11-22T00:15:42;100562.78;;;6.50;100.00
24154;BME280;12312;53.362;-1.518;2023-11-22T00:18:26;100554.97;;;6.72;100.00
24154;BME280;12312;53.362;-1.518;2023-11-22T00:21:11;100554.09;;;6.73;100.00
24154;BME280;12312;53.362;-1.518;2023-11-22T00:23:55;100553.09;;;6.75;100.00
24154;BME280;12312;53.362;-1.518;2023-11-22T00:26:39;100532.69;;;6.79;100.00
24154;BME280;12312;53.362;-1.518;2023-11-22T00:29:23;100534.03;;;6.90;100.00
24154;BME280;12312;53.362;-1.518;2023-11-22T00:32:07;100543.84;;;6.87;100.00
24154;BME280;12312;53.362;-1.518;2023-11-22T00:34:54;100549.13;;;6.87;100.00
24154;BME280;12312;53.362;-1.518;2023-11-22T00:37:38;100546.03;;;6.76;100.00
24154;BME280;12312;53.362;-1.518;2023-11-22T00:40:22;100543.78;;;6.88;100.00
24154;BME280;12312;53.362;-1.518;2023-11-22T00:43:06;100526.03;;;6.92;100.00
24154;BME280;12312;53.362;-1.518;2023-11-22T00:45:50;100518.44;;;7.06;100.00
24154;BME280;12312;53.362;-1.518;2023-11-22T00:48:34;100511.09;;;6.91;100.00
24154;BME280;12312;53.362;-1.518;2023-11-22T00:51:18;100396.53;;;6.92;100.00
24154;BME280;12312;53.362;-1.518;2023-11-22T00:54:03;100512.41;;;7.02;100.00
24154;BME280;12312;53.362;-1.518;2023-11-22T00:56:47;100518.31;;;6.86;100.00
24154;BME280;12312;53.362;-1.518;2023-11-22T00:59:31;100504.28;;;6.84;100.00
24154;BME280;12312;53.362;-1.518;2023-11-22T01:02:15;100504.28;;;6.84;100.00
24154;BME280;12312;53.362;-1.518;2023-11-22T01:04:59;100499.63;;;6.90;100.00
24154;BME280;12312;53.362;-1.518;2023-11-22T01:07:44;100509.16;;;6.94;100.00
24154;BME280;12312;53.362;-1.518;2023-11-22T01:10:28;100501.16;;;6.96;100.00
24154;BME280;12312;53.362;-1.518;2023-11-22T01:13:12;100500.47;;;7.14;100.00
24154;BME280;12312;53.362;-1.518;2023-11-22T01:15:58;100514.06;;;7.05;100.00
24154;BME280;12312;53.362;-1.518;2023-11-22T01:18:42;100514.88;;;7.07;100.00
24154;BME280;12312;53.362;-1.518;2023-11-22T01:21:27;100494.03;;;7.21;100.00
24154;BME280;12312;53.362;-1.518;2023-11-22T01:24:11;100504.69;;;7.19;100.00
24154;BME280;12312;53.362;-1.518;2023-11-22T01:26:55;100499.88;;;7.07;100.00
24154;BME280;12312;53.362;-1.518;2023-11-22T01:29:39;100486.22;;;7.18;100.00
24154;BME280;12312;53.362;-1.518;2023-11-22T01:32:23;100473.56;;;7.03;100.00
24154;BME280;12312;53.362;-1.518;2023-11-22T01:35:08;100466.31;;;7.08;100.00
24154;BME280;12312;53.362;-1.518;2023-11-22T01:37:51;100468.53;;;7.18;100.00
24154;BME280;12312;53.362;-1.518;2023-11-22T01:40:43;100458.88;;;7.17;100.00
24154;BME280;12312;53.362;-1.518;2023-11-22T01:43:29;100468.47;;;6.98;100.00
24154;BME280;12312;53.362;-1.518;2023-11-22T01:46:31;100463.66;;;7.08;100.00
24154;BME280;12312;53.362;-1.518;2023-11-22T01:49:17;100468.72;;;7.14;100.00
24154;BME280;12312;53.362;-1.518;2023-11-22T01:52:01;100467.34;;;7.04;100.00
24154;BME280;12312;53.362;-1.518;2023-11-22T01:54:47;100458.72;;;6.99;100.00
24154;BME280;12312;53.362;-1.518;2023-11-22T01:57:32;100452.41;;;7.03;100.00
24154;BME280;12312;53.362;-1.518;2023-11-22T02:00:19;100441.88;;;7.01;100.00
24154;BME280;12312;53.362;-1.518;2023-11-22T02:03:04;100431.00;;;7.09;100.00
24154;BME280;12312;53.362;-1.518;2023-11-22T02:05:50;100440.94;;;7.02;100.00
24154;BME280;12312;53.362;-1.518;2023-11-22T02:08:34;100438.50;;;7.19;100.00
24154;BME280;12312;53.362;-1.518;2023-11-22T02:11:19;100429.94;;;7.13;100.00
24154;BME280;12312;53.362;-1.518;2023-11-22T02:14:08;100428.09;;;7.15;100.00
24154;BME280;12312;53.362;-1.518;2023-11-22T02:16:53;100430.38;;;7.24;100.00
24154;BME280;12312;53.362;-1.518;2023-11-22T02:19:37;100431.44;;;7.20;100.00
24154;BME280;12312;53.362;-1.518;2023-11-22T02:22:21;100429.81;;;7.16;100.00
24154;BME280;12312;53.362;-1.518;2023-11-22T02:25:06;100425.63;;;7.10;100.00
24154;BME280;12312;53.362;-1.518;2023-11-22T02:27:50;100425.63;;;24.19;100.00
24154;BME280;12312;53.362;-1.518;2023-11-22T02:30:34;100406.94;;;7.15;100.00
24154;BME280;12312;53.362;-1.518;2023-11-22T02:33:19;100421.44;;;7.05;100.00
24154;BME280;12312;53.362;-1.518;2023-11-22T02:36:03;100419.59;;;7.07;100.00
24154;BME280;12312;53.362;-1.518;2023-11-22T02:38:47;100403.97;;;7.01;100.00
24154;BME280;12312;53.362;-1.518;2023-11-22T02:41:31;100411.84;;;7.02;100.00
24154;BME280;12312;53.362;-1.518;2023-11-22T02:44:15;100413.19;;;7.12;100.00
24154;BME280;12312;53.362;-1.518;2023-11-22T02:47:00;100402.19;;;7.23;100.00
24154;BME280;12312;53.362;-1.518;2023-11-22T02:49:44;100414.44;;;7.25;100.00
24154;BME280;12312;53.362;-1.518;2023-11-22T02:52:28;77406.38;;;7.25;100.00
24154;BME280;12312;53.362;-1.518;2023-11-22T02:55:12;100426.16;;;7.20;100.00
24154;BME280;12312;53.362;-1.518;2023-11-22T02:57:57;100426.16;;;7.20;100.00
24154;BME280;12312;53.362;-1.518;2023-11-22T03:00:41;100438.44;;;7.21;100.00
24154;BME280;12312;53.362;-1.518;2023-11-22T03:03:25;100431.13;;;7.28;100.00
24154;BME280;12312;53.362;-1.518;2023-11-22T03:06:09;100445.22;;;7.28;100.00
24154;BME280;12312;53.362;-1.518;2023-11-22T03:08:53;100436.38;;;7.29;100.00
24154;BME280;12312;53.362;-1.518;2023-11-22T03:11:36;100431.19;;;7.26;100.00
24154;BME280;12312;53.362;-1.518;2023-11-22T03:14:22;100440.03;;;7.25;100.00
24154;BME280;12312;53.362;-1.518;2023-11-22T03:17:06;100427.13;;;7.39;100.00
24154;BME280;12312;53.362;-1.518;2023-11-22T03:19:50;100425.03;;;7.47;100.00
24154;BME280;12312;53.362;-1.518;2023-11-22T03:22:35;100413.81;;;7.41;100.00
24154;BME280;12312;53.362;-1.518;2023-11-22T03:25:19;100409.16;;;7.47;100.00
24154;BME280;12312;53.362;-1.518;2023-11-22T03:28:03;100395.22;;;7.42;100.00
24154;BME280;12312;53.362;-1.518;2023-11-22T03:30:47;100400.41;;;7.45;100.00
24154;BME280;12312;53.362;-1.518;2023-11-22T03:33:31;100387.97;;;7.47;100.00
24154;BME280;12312;53.362;-1.518;2023-11-22T03:36:15;100392.19;;;7.51;100.00
24154;BME280;12312;53.362;-1.518;2023-11-22T03:38:59;100393.63;;;7.38;100.00
24154;BME280;12312;53.362;-1.518;2023-11-22T03:41:43;100395.09;;;7.45;100.00
24154;BME280;12312;53.362;-1.518;2023-11-22T03:44:28;100403.09;;;7.44;100.00
24154;BME280;12312;53.362;-1.518;2023-11-22T03:47:15;100404.75;;;7.46;100.00
24154;BME280;12312;53.362;-1.518;2023-11-22T03:49:59;100389.06;;;7.42;100.00
24154;BME280;12312;53.362;-1.518;2023-11-22T03:52:43;100374.97;;;7.41;100.00
24154;BME280;12312;53.362;-1.518;2023-11-22T03:55:27;100364.91;;;7.49;100.00
24154;BME280;12312;53.362;-1.518;2023-11-22T03:58:12;100364.06;;;7.49;100.00
24154;BME280;12312;53.362;-1.518;2023-11-22T04:00:56;100370.69;;;7.59;100.00
24154;BME280;12312;53.362;-1.518;2023-11-22T04:03:40;100391.38;;;7.49;100.00
24154;BME280;12312;53.362;-1.518;2023-11-22T04:06:25;100381.66;;;7.50;100.00
24154;BME280;12312;53.362;-1.518;2023-11-22T04:09:09;100373.94;;;7.65;100.00
24154;BME280;12312;53.362;-1.518;2023-11-22T04:11:56;100364.38;;;7.61;100.00
24154;BME280;12312;53.362;-1.518;2023-11-22T04:14:40;100366.53;;;7.53;100.00
24154;BME280;12312;53.362;-1.518;2023-11-22T04:17:24;100359.97;;;7.62;100.00
24154;BME280;12312;53.362;-1.518;2023-11-22T04:20:08;100364.66;;;7.55;100.00
24154;BME280;12312;53.362;-1.518;2023-11-22T04:22:53;100370.00;;;7.54;100.00
24154;BME280;12312;53.362;-1.518;2023-11-22T04:25:37;100380.97;;;7.66;100.00
24154;BME280;12312;53.362;-1.518;2023-11-22T04:28:21;100386.66;;;7.57;100.00
24154;BME280;12312;53.362;-1.518;2023-11-22T04:31:05;100391.75;;;7.62;100.00
24154;BME280;12312;53.362;-1.518;2023-11-22T04:33:49;100385.59;;;7.61;100.00
24154;BME280;12312;53.362;-1.518;2023-11-22T04:36:34;100381.25;;;7.80;100.00
24154;BME280;12312;53.362;-1.518;2023-11-22T04:39:18;100374.84;;;7.64;100.00
24154;BME280;12312;53.362;-1.518;2023-11-22T04:42:02;100374.84;;;7.64;100.00
24154;BME280;12312;53.362;-1.518;2023-11-22T04:44:46;100361.22;;;7.53;100.00
24154;BME280;12312;53.362;-1.518;2023-11-22T04:47:30;100355.31;;;7.47;100.00
24154;BME280;12312;53.362;-1.518;2023-11-22T04:50:14;100358.81;;;7.67;100.00
24154;BME280;12312;53.362;-1.518;2023-11-22T04:52:58;100336.00;;;7.65;100.00
24154;BME280;12312;53.362;-1.518;2023-11-22T04:55:42;100336.06;;;7.63;100.00
24154;BME280;12312;53.362;-1.518;2023-11-22T04:58:26;100337.53;;;7.70;100.00
24154;BME280;12312;53.362;-1.518;2023-11-22T05:01:10;100340.81;;;7.75;100.00
24154;BME280;12312;53.362;-1.518;2023-11-22T05:03:54;100343.41;;;7.77;100.00
24154;BME280;12312;53.362;-1.518;2023-11-22T05:06:38;100327.03;;;7.87;100.00
24154;BME280;12312;53.362;-1.518;2023-11-22T05:09:22;100340.56;;;7.81;100.00
24154;BME280;12312;53.362;-1.518;2023-11-22T05:12:06;100340.28;;;7.87;100.00
24154;BME280;12312;53.362;-1.518;2023-11-22T05:14:50;100360.69;;;8.05;100.00
24154;BME280;12312;53.362;-1.518;2023-11-22T05:17:34;100357.34;;;7.82;100.00
24154;BME280;12312;53.362;-1.518;2023-11-22T05:20:19;100355.97;;;8.12;100.00
24154;BME280;12312;53.362;-1.518;2023-11-22T05:23:03;100360.47;;;7.91;100.00
24154;BME280;12312;53.362;-1.518;2023-11-22T05:25:48;100363.59;;;8.19;100.00
24154;BME280;12312;53.362;-1.518;2023-11-22T05:28:33;100369.97;;;8.15;100.00
24154;BME280;12312;53.362;-1.518;2023-11-22T05:31:18;100359.66;;;8.29;100.00
24154;BME280;12312;53.362;-1.518;2023-11-22T05:34:02;100374.44;;;8.35;100.00
24154;BME280;12312;53.362;-1.518;2023-11-22T05:36:46;100374.06;;;8.42;100.00
24154;BME280;12312;53.362;-1.518;2023-11-22T05:39:30;100379.88;;;8.32;100.00
24154;BME280;12312;53.362;-1.518;2023-11-22T05:42:14;100373.06;;;8.26;100.00
24154;BME280;12312;53.362;-1.518;2023-11-22T05:44:58;100368.91;;;8.19;100.00
24154;BME280;12312;53.362;-1.518;2023-11-22T05:47:42;100353.28;;;8.13;100.00
24154;BME280;12312;53.362;-1.518;2023-11-22T05:50:26;100350.28;;;8.01;100.00
24154;BME280;12312;53.362;-1.518;2023-11-22T05:53:10;100329.56;;;7.90;100.00
24154;BME280;12312;53.362;-1.518;2023-11-22T05:55:55;100334.84;;;7.90;100.00
24154;BME280;12312;53.362;-1.518;2023-11-22T05:58:39;100329.81;;;7.84;100.00
24154;BME280;12312;53.362;-1.518;2023-11-22T06:01:23;100333.94;;;7.91;100.00
24154;BME280;12312;53.362;-1.518;2023-11-22T06:04:07;100337.44;;;7.92;100.00
24154;BME280;12312;53.362;-1.518;2023-11-22T06:06:53;100345.72;;;7.84;100.00
24154;BME280;12312;53.362;-1.518;2023-11-22T06:09:37;100355.66;;;7.99;100.00
24154;BME280;12312;53.362;-1.518;2023-11-22T06:12:21;100356.06;;;7.90;100.00
24154;BME280;12312;53.362;-1.518;2023-11-22T06:15:06;100327.97;;;7.86;100.00
24154;BME280;12312;53.362;-1.518;2023-11-22T06:17:51;100336.41;;;7.76;100.00
24154;BME280;12312;53.362;-1.518;2023-11-22T06:20:36;100342.94;;;7.67;100.00
24154;BME280;12312;53.362;-1.518;2023-11-22T06:23:21;100357.06;;;7.68;100.00
24154;BME280;12312;53.362;-1.518;2023-11-22T06:26:05;100346.25;;;7.72;100.00
24154;BME280;12312;53.362;-1.518;2023-11-22T06:28:50;100357.66;;;7.74;100.00
24154;BME280;12312;53.362;-1.518;2023-11-22T06:31:34;77297.97;;;7.74;100.00
24154;BME280;12312;53.362;-1.518;2023-11-22T06:34:18;100359.22;;;7.58;100.00
24154;BME280;12312;53.362;-1.518;2023-11-22T06:37:02;100348.63;;;7.58;100.00
24154;BME280;12312;53.362;-1.518;2023-11-22T06:39:47;100331.91;;;7.58;100.00
24154;BME280;12312;53.362;-1.518;2023-11-22T06:42:30;100337.19;;;7.58;100.00
24154;BME280;12312;53.362;-1.518;2023-11-22T06:45:15;100337.19;;;7.58;100.00
24154;BME280;12312;53.362;-1.518;2023-11-22T06:48:00;100313.22;;;7.81;100.00
24154;BME280;12312;53.362;-1.518;2023-11-22T06:50:44;100321.88;;;7.64;100.00
24154;BME280;12312;53.362;-1.518;2023-11-22T06:53:29;100190.25;;;7.69;100.00
24154;BME280;12312;53.362;-1.518;2023-11-22T06:56:13;100285.59;;;7.66;100.00
24154;BME280;12312;53.362;-1.518;2023-11-22T06:58:58;100280.69;;;7.77;100.00
24154;BME280;12312;53.362;-1.518;2023-11-22T07:01:42;100279.53;;;7.83;100.00
24154;BME280;12312;53.362;-1.518;2023-11-22T07:04:27;100288.50;;;7.80;100.00
24154;BME280;12312;53.362;-1.518;2023-11-22T07:07:13;100298.97;;;7.83;100.00
24154;BME280;12312;53.362;-1.518;2023-11-22T07:09:57;100287.28;;;7.87;100.00
24154;BME280;12312;53.362;-1.518;2023-11-22T07:12:42;100294.47;;;7.85;100.00
24154;BME280;12312;53.362;-1.518;2023-11-22T07:15:27;100295.63;;;7.98;100.00
24154;BME280;12312;53.362;-1.518;2023-11-22T07:18:11;100285.13;;;8.35;100.00
24154;BME280;12312;53.362;-1.518;2023-11-22T07:20:57;100271.59;;;8.21;100.00
24154;BME280;12312;53.362;-1.518;2023-11-22T07:23:43;100263.28;;;8.66;100.00
24154;BME280;12312;53.362;-1.518;2023-11-22T07:26:29;100263.44;;;8.63;100.00
24154;BME280;12312;53.362;-1.518;2023-11-22T07:29:14;100273.06;;;8.28;100.00
24154;BME280;12312;53.362;-1.518;2023-11-22T07:31:58;100258.59;;;8.35;100.00
24154;BME280;12312;53.362;-1.518;2023-11-22T07:34:41;100267.00;;;8.26;100.00
24154;BME280;12312;53.362;-1.518;2023-11-22T07:37:25;100269.34;;;8.32;100.00
24154;BME280;12312;53.362;-1.518;2023-11-22T07:40:10;100260.91;;;8.43;100.00
24154;BME280;12312;53.362;-1.518;2023-11-22T07:42:57;100262.44;;;8.28;100.00
24154;BME280;12312;53.362;-1.518;2023-11-22T07:45:41;100262.44;;;8.28;100.00
24154;BME280;12312;53.362;-1.518;2023-11-22T07:48:27;100264.59;;;8.39;100.00
24154;BME280;12312;53.362;-1.518;2023-11-22T07:51:13;100275.13;;;8.77;100.00
24154;BME280;12312;53.362;-1.518;2023-11-22T07:54:00;100278.88;;;8.73;100.00
24154;BME280;12312;53.362;-1.518;2023-11-22T07:56:44;100281.94;;;8.64;100.00
24154;BME280;12312;53.362;-1.518;2023-11-22T07:59:28;100275.41;;;8.90;100.00
24154;BME280;12312;53.362;-1.518;2023-11-22T08:02:12;100275.41;;;8.90;100.00
24154;BME280;12312;53.362;-1.518;2023-11-22T08:04:56;100265.69;;;8.89;100.00
24154;BME280;12312;53.362;-1.518;2023-11-22T08:07:40;100268.84;;;8.97;100.00
24154;BME280;12312;53.362;-1.518;2023-11-22T08:10:24;100263.50;;;9.16;100.00
24154;BME280;12312;53.362;-1.518;2023-11-22T08:13:09;100278.16;;;9.23;100.00
24154;BME280;12312;53.362;-1.518;2023-11-22T08:15:53;100278.41;;;9.18;100.00
24154;BME280;12312;53.362;-1.518;2023-11-22T08:18:37;100284.09;;;9.11;100.00
24154;BME280;12312;53.362;-1.518;2023-11-22T08:21:22;100249.56;;;9.11;100.00
24154;BME280;12312;53.362;-1.518;2023-11-22T08:24:07;100240.97;;;9.23;100.00
24154;BME280;12312;53.362;-1.518;2023-11-22T08:26:51;100234.81;;;9.22;100.00
24154;BME280;12312;53.362;-1.518;2023-11-22T08:29:35;100231.78;;;9.30;100.00
24154;BME280;12312;53.362;-1.518;2023-11-22T08:32:20;100233.31;;;9.17;100.00
24154;BME280;12312;53.362;-1.518;2023-11-22T08:35:10;100230.13;;;9.27;100.00
24154;BME280;12312;53.362;-1.518;2023-11-22T08:37:55;100232.22;;;9.21;100.00
24154;BME280;12312;53.362;-1.518;2023-11-22T08:40:41;100215.28;;;9.23;100.00
24154;BME280;12312;53.362;-1.518;2023-11-22T08:43:25;100195.50;;;9.12;100.00
24154;BME280;12312;53.362;-1.518;2023-11-22T08:46:09;100190.84;;;9.17;100.00
24154;BME280;12312;53.362;-1.518;2023-11-22T08:48:53;100190.28;;;9.10;100.00
24154;BME280;12312;53.362;-1.518;2023-11-22T08:51:37;100184.28;;;9.07;100.00
24154;BME280;12312;53.362;-1.518;2023-11-22T08:54:21;100201.84;;;9.09;100.00
24154;BME280;12312;53.362;-1.518;2023-11-22T08:57:05;100210.78;;;9.25;100.00
24154;BME280;12312;53.362;-1.518;2023-11-22T08:59:49;100199.44;;;9.22;100.00
24154;BME280;12312;53.362;-1.518;2023-11-22T09:02:34;100211.44;;;9.29;100.00
24154;BME280;12312;53.362;-1.518;2023-11-22T09:05:18;100225.22;;;9.37;100.00
24154;BME280;12312;53.362;-1.518;2023-11-22T09:08:03;100234.38;;;9.31;100.00
24154;BME280;12312;53.362;-1.518;2023-11-22T09:10:48;100245.66;;;9.35;100.00
24154;BME280;12312;53.362;-1.518;2023-11-22T09:13:32;100148.00;;;9.43;100.00
24154;BME280;12312;53.362;-1.518;2023-11-22T09:16:17;100251.63;;;9.40;100.00
24154;BME280;12312;53.362;-1.518;2023-11-22T09:19:03;100243.31;;;9.29;100.00
24154;BME280;12312;53.362;-1.518;2023-11-22T09:21:47;100243.31;;;9.29;100.00
24154;BME280;12312;53.362;-1.518;2023-11-22T09:24:32;100219.19;;;9.50;100.00
24154;BME280;12312;53.362;-1.518;2023-11-22T09:27:17;100219.09;;;9.52;100.00
24154;BME280;12312;53.362;-1.518;2023-11-22T09:30:03;100210.03;;;9.56;100.00
24154;BME280;12312;53.362;-1.518;2023-11-22T09:32:47;100198.16;;;9.46;100.00
24154;BME280;12312;53.362;-1.518;2023-11-22T09:35:32;100203.06;;;9.53;100.00
24154;BME280;12312;53.362;-1.518;2023-11-22T09:38:16;100215.81;;;9.47;100.00
24154;BME280;12312;53.362;-1.518;2023-11-22T09:41:00;100236.22;;;9.46;100.00
24154;BME280;12312;53.362;-1.518;2023-11-22T09:43:46;100236.91;;;9.67;100.00
24154;BME280;12312;53.362;-1.518;2023-11-22T09:46:33;100249.31;;;9.66;100.00
24154;BME280;12312;53.362;-1.518;2023-11-22T09:49:20;100281.47;;;9.45;100.00
24154;BME280;12312;53.362;-1.518;2023-11-22T09:52:08;100303.56;;;9.45;100.00
24154;BME280;12312;53.362;-1.518;2023-11-22T09:54:58;100257.00;;;9.55;100.00
24154;BME280;12312;53.362;-1.518;2023-11-22T09:57:42;100225.63;;;9.62;100.00
24154;BME280;12312;53.362;-1.518;2023-11-22T10:00:29;100232.88;;;9.43;100.00
24154;BME280;12312;53.362;-1.518;2023-11-22T10:03:14;100251.94;;;9.34;100.00
24154;BME280;12312;53.362;-1.518;2023-11-22T10:05:59;100257.81;;;9.40;100.00
24154;BME280;12312;53.362;-1.518;2023-11-22T10:08:44;100233.66;;;9.45;100.00
24154;BME280;12312;53.362;-1.518;2023-11-22T10:11:31;100234.72;;;9.24;100.00
24154;BME280;12312;53.362;-1.518;2023-11-22T10:14:24;100251.84;;;9.52;100.00
24154;BME280;12312;53.362;-1.518;2023-11-22T10:17:11;100241.53;;;9.46;100.00
24154;BME280;12312;53.362;-1.518;2023-11-22T10:19:55;100259.28;;;9.46;100.00
24154;BME280;12312;53.362;-1.518;2023-11-22T10:22:46;100289.59;;;9.42;100.00
24154;BME280;12312;53.362;-1.518;2023-11-22T10:25:34;100267.41;;;9.43;100.00
24154;BME280;12312;53.362;-1.518;2023-11-22T10:28:19;100246.00;;;9.46;100.00
24154;BME280;12312;53.362;-1.518;2023-11-22T10:31:07;100243.31;;;9.63;100.00
24154;BME280;12312;53.362;-1.518;2023-11-22T10:33:52;100263.47;;;9.50;100.00
24154;BME280;12312;53.362;-1.518;2023-11-22T10:36:36;100207.44;;;9.54;100.00
24154;BME280;12312;53.362;-1.518;2023-11-22T10:39:20;100211.38;;;9.47;100.00
24154;BME280;12312;53.362;-1.518;2023-11-22T10:42:05;100220.06;;;9.51;100.00
24154;BME280;12312;53.362;-1.518;2023-11-22T10:44:55;100260.50;;;9.56;100.00
24154;BME280;12312;53.362;-1.518;2023-11-22T10:47:42;100223.13;;;9.59;100.00
24154;BME280;12312;53.362;-1.518;2023-11-22T10:50:27;100214.16;;;9.61;100.00
24154;BME280;12312;53.362;-1.518;2023-11-22T10:53:13;100214.16;;;9.61;100.00
24154;BME280;12312;53.362;-1.518;2023-11-22T10:58:52;100202.50;;;9.64;100.00
24154;BME280;12312;53.362;-1.518;2023-11-22T11:01:44;100201.72;;;9.62;100.00
24154;BME280;12312;53.362;-1.518;2023-11-22T11:04:33;100205.56;;;9.56;100.00
24154;BME280;12312;53.362;-1.518;2023-11-22T11:07:22;100192.03;;;9.61;100.00
24154;BME280;12312;53.362;-1.518;2023-11-22T11:10:08;-25372.28;;;9.62;100.00
24154;BME280;12312;53.362;-1.518;2023-11-22T11:12:53;100204.38;;;9.62;100.00
24154;BME280;12312;53.362;-1.518;2023-11-22T11:15:39;100202.13;;;9.54;100.00
24154;BME280;12312;53.362;-1.518;2023-11-22T11:18:24;100199.38;;;9.56;100.00
24154;BME280;12312;53.362;-1.518;2023-11-22T11:21:09;100184.16;;;9.59;100.00
24154;BME280;12312;53.362;-1.518;2023-11-22T11:23:55;100177.63;;;9.65;100.00
24154;BME280;12312;53.362;-1.518;2023-11-22T11:26:49;100161.44;;;9.69;100.00
24154;BME280;12312;53.362;-1.518;2023-11-22T11:29:37;100170.44;;;9.67;100.00
24154;BME280;12312;53.362;-1.518;2023-11-22T11:32:31;100171.28;;;9.84;100.00
24154;BME280;12312;53.362;-1.518;2023-11-22T11:35:40;100152.59;;;9.86;100.00
24154;BME280;12312;53.362;-1.518;2023-11-22T11:38:34;100151.28;;;9.93;100.00
24154;BME280;12312;53.362;-1.518;2023-11-22T11:41:18;100153.69;;;9.97;100.00
24154;BME280;12312;53.362;-1.518;2023-11-22T11:44:03;100154.75;;;9.95;100.00
24154;BME280;12312;53.362;-1.518;2023-11-22T11:46:51;100152.28;;;10.07;100.00
24154;BME280;12312;53.362;-1.518;2023-11-22T11:49:37;100147.13;;;10.20;100.00
24154;BME280;12312;53.362;-1.518;2023-11-22T11:52:25;100148.44;;;10.28;100.00
24154;BME280;12312;53.362;-1.518;2023-11-22T11:55:10;100156.16;;;10.33;100.00
24154;BME280;12312;53.362;-1.518;2023-11-22T11:57:54;100156.16;;;10.33;100.00
24154;BME280;12312;53.362;-1.518;2023-11-22T12:00:39;100161.97;;;10.39;100.00
24154;BME280;12312;53.362;-1.518;2023-11-22T12:03:24;100159.75;;;10.16;100.00
24154;BME280;12312;53.362;-1.518;2023-11-22T12:06:08;100152.09;;;10.26;100.00
24154;BME280;12312;53.362;-1.518;2023-11-22T12:08:52;100162.84;;;10.24;100.00
24154;BME280;12312;53.362;-1.518;2023-11-22T12:11:37;100184.25;;;10.06;100.00
24154;BME280;12312;53.362;-1.518;2023-11-22T12:14:22;100182.69;;;10.02;100.00
24154;BME280;12312;53.362;-1.518;2023-11-22T12:17:06;100182.66;;;10.19;100.00
24154;BME280;12312;53.362;-1.518;2023-11-22T12:19:51;100189.91;;;10.00;100.00
24154;BME280;12312;53.362;-1.518;2023-11-22T12:22:36;100173.47;;;10.09;100.00
24154;BME280;12312;53.362;-1.518;2023-11-22T12:25:20;100155.13;;;10.20;100.00
24154;BME280;12312;53.362;-1.518;2023-11-22T12:28:05;100155.47;;;10.14;100.00
24154;BME280;12312;53.362;-1.518;2023-11-22T12:30:49;100156.44;;;9.96;100.00
24154;BME280;12312;53.362;-1.518;2023-11-22T12:33:38;100154.22;;;10.04;100.00
24154;BME280;12312;53.362;-1.518;2023-11-22T12:36:23;100150.84;;;10.17;100.00
24154;BME280;12312;53.362;-1.518;2023-11-22T12:39:10;100140.84;;;10.21;100.00
24154;BME280;12312;53.362;-1.518;2023-11-22T12:41:56;100149.28;;;10.13;100.00
24154;BME280;12312;53.362;-1.518;2023-11-22T12:44:51;100132.13;;;10.19;100.00
24154;BME280;12312;53.362;-1.518;2023-11-22T12:47:39;100133.31;;;10.13;100.00
24154;BME280;12312;53.362;-1.518;2023-11-22T12:50:36;100137.94;;;10.25;100.00
24154;BME280;12312;53.362;-1.518;2023-11-22T12:53:24;100134.00;;;10.17;100.00
24154;BME280;12312;53.362;-1.518;2023-11-22T12:56:11;100126.47;;;10.25;100.00
24154;BME280;12312;53.362;-1.518;2023-11-22T12:58:55;100119.41;;;10.24;100.00
24154;BME280;12312;53.362;-1.518;2023-11-22T13:01:40;100117.44;;;10.12;100.00
24154;BME280;12312;53.362;-1.518;2023-11-22T13:04:24;100094.88;;;10.19;100.00
24154;BME280;12312;53.362;-1.518;2023-11-22T13:07:08;100111.50;;;10.22;100.00
24154;BME280;12312;53.362;-1.518;2023-11-22T13:09:52;100117.63;;;10.24;100.00
24154;BME280;12312;53.362;-1.518;2023-11-22T13:12:36;100122.84;;;10.26;100.00
24154;BME280;12312;53.362;-1.518;2023-11-22T13:15:21;100124.72;;;10.24;100.00
24154;BME280;12312;53.362;-1.518;2023-11-22T13:18:07;100138.81;;;10.26;100.00
24154;BME280;12312;53.362;-1.518;2023-11-22T13:20:52;100137.59;;;10.47;100.00
24154;BME280;12312;53.362;-1.518;2023-11-22T13:23:36;100131.09;;;10.37;100.00
24154;BME280;12312;53.362;-1.518;2023-11-22T13:26:20;100142.56;;;10.53;100.00
24154;BME280;12312;53.362;-1.518;2023-11-22T13:29:05;100138.78;;;10.57;100.00
24154;BME280;12312;53.362;-1.518;2023-11-22T13:31:50;100133.19;;;10.61;100.00
24154;BME280;12312;53.362;-1.518;2023-11-22T13:34:35;100129.06;;;10.56;100.00
24154;BME280;12312;53.362;-1.518;2023-11-22T13:37:22;100130.84;;;10.71;100.00
24154;BME280;12312;53.362;-1.518;2023-11-22T13:40:07;100123.81;;;10.70;100.00
24154;BME280;12312;53.362;-1.518;2023-11-22T13:42:56;100119.34;;;10.70;100.00
24154;BME280;12312;53.362;-1.518;2023-11-22T13:45:40;100114.59;;;10.75;100.00
24154;BME280;12312;53.362;-1.518;2023-11-22T13:48:25;100116.41;;;10.75;100.00
24154;BME280;12312;53.362;-1.518;2023-11-22T13:51:09;100099.81;;;10.86;100.00
24154;BME280;12312;53.362;-1.518;2023-11-22T13:53:54;100104.13;;;11.02;100.00
24154;BME280;12312;53.362;-1.518;2023-11-22T13:56:38;100089.28;;;11.12;100.00
24154;BME280;12312;53.362;-1.518;2023-11-22T13:59:22;100071.47;;;10.85;100.00
24154;BME280;12312;53.362;-1.518;2023-11-22T14:02:07;100079.19;;;11.03;100.00
24154;BME280;12312;53.362;-1.518;2023-11-22T14:04:51;100065.31;;;10.98;100.00
24154;BME280;12312;53.362;-1.518;2023-11-22T14:07:36;100066.09;;;11.14;100.00
24154;BME280;12312;53.362;-1.518;2023-11-22T14:10:21;100058.59;;;11.21;100.00
24154;BME280;12312;53.362;-1.518;2023-11-22T14:13:06;100048.22;;;11.16;100.00